createdAt,value
2022-08-07T00:02:41.244Z,63.96
2022-08-07T00:05:10.778Z,64.40
2022-08-07T00:07:42.970Z,64.37
2022-08-07T00:10:25.868Z,64.84
2022-08-07T00:13:00.932Z,64.57
2022-08-07T00:15:38.395Z,64.30
2022-08-07T00:18:19.531Z,64.60
2022-08-07T00:21:01.964Z,64.86
2022-08-07T00:23:35.878Z,65.18
2022-08-07T00:26:18.868Z,65.24
2022-08-07T00:29:04.948Z,65.75
2022-08-07T00:31:41.609Z,65.77
2022-08-07T00:34:13.835Z,66.06
2022-08-07T00:36:47.138Z,65.54
2022-08-07T00:39:20.488Z,65.14
2022-08-07T00:42:02.319Z,64.91
2022-08-07T00:44:38.287Z,65.18
2022-08-07T00:47:16.034Z,64.66
2022-08-07T00:50:19.916Z,64.85
2022-08-07T00:52:56.994Z,64.75
2022-08-07T00:56:00.501Z,64.94
2022-08-07T00:58:23.572Z,65.18
2022-08-07T01:00:56.930Z,65.62
2022-08-07T01:03:57.348Z,65.88
2022-08-07T01:06:21.889Z,66.09
2022-08-07T01:08:55.813Z,66.55
2022-08-07T01:12:09.281Z,66.73
2022-08-07T01:14:28.493Z,66.57
2022-08-07T01:17:04.260Z,66.76
2022-08-07T01:19:41.896Z,66.92
2022-08-07T01:22:16.211Z,67.35
2022-08-07T01:24:55.407Z,67.27
2022-08-07T01:27:32.011Z,67.68
2022-08-07T01:30:05.480Z,67.99
2022-08-07T01:32:37.406Z,68.22
2022-08-07T01:35:14.829Z,68.44
2022-08-07T01:37:49.300Z,68.24
2022-08-07T01:40:24.927Z,68.10
2022-08-07T01:42:59.089Z,67.70
2022-08-07T01:45:37.240Z,67.24
2022-08-07T01:48:20.137Z,67.26
2022-08-07T01:51:24.369Z,67.48
2022-08-07T01:54:11.840Z,67.87
2022-08-07T01:56:50.618Z,68.59
2022-08-07T01:59:31.046Z,68.61
2022-08-07T02:02:10.333Z,68.41
2022-08-07T02:04:52.577Z,68.46
2022-08-07T02:07:35.955Z,68.46
2022-08-07T02:10:26.994Z,68.11
2022-08-07T02:13:01.256Z,67.65
2022-08-07T02:15:34.261Z,67.89
2022-08-07T02:18:07.208Z,67.60
2022-08-07T02:20:42.151Z,67.64
2022-08-07T02:23:23.917Z,67.40
2022-08-07T02:26:31.694Z,67.40
2022-08-07T02:28:49.632Z,66.88
2022-08-07T02:31:28.811Z,66.99
2022-08-07T02:34:04.121Z,67.23
2022-08-07T02:36:44.105Z,67.56
2022-08-07T02:39:42.488Z,67.46
2022-08-07T02:42:14.692Z,67.43
2022-08-07T02:44:50.105Z,67.76
2022-08-07T02:47:23.970Z,68.09
2022-08-07T02:49:59.747Z,67.71
2022-08-07T02:52:34.628Z,67.41
2022-08-07T02:55:27.979Z,67.61
2022-08-07T02:58:09.795Z,67.34
2022-08-07T03:00:47.583Z,67.41
2022-08-07T03:03:22.575Z,67.47
2022-08-07T03:05:57.756Z,67.35
2022-08-07T03:08:29.752Z,67.51
2022-08-07T03:11:02.972Z,67.83
2022-08-07T03:13:39.168Z,67.74
2022-08-07T03:16:23.041Z,67.30
2022-08-07T03:18:59.821Z,67.23
2022-08-07T03:21:33.066Z,67.53
2022-08-07T03:24:19.245Z,67.58
2022-08-07T03:26:58.935Z,67.61
2022-08-07T03:29:29.880Z,67.67
2022-08-07T03:32:02.445Z,67.53
2022-08-07T03:34:47.011Z,67.53
2022-08-07T03:37:46.479Z,67.68
2022-08-07T03:40:36.571Z,67.79
2022-08-07T03:43:15.252Z,67.38
2022-08-07T03:45:47.496Z,67.62
2022-08-07T03:48:20.098Z,67.44
2022-08-07T03:50:57.634Z,66.69
2022-08-07T03:53:50.083Z,65.56
2022-08-07T03:56:33.597Z,64.14
2022-08-07T03:59:12.936Z,63.23
2022-08-07T04:01:46.658Z,62.01
2022-08-07T04:04:19.899Z,61.34
2022-08-07T04:06:51.876Z,59.97
2022-08-07T04:09:23.941Z,58.62
2022-08-07T04:12:27.735Z,57.85
2022-08-07T04:14:49.076Z,57.18
2022-08-07T04:17:21.811Z,56.44
2022-08-07T04:19:55.075Z,55.92
2022-08-07T04:22:29.587Z,54.77
2022-08-07T04:25:02.451Z,54.16
2022-08-07T04:27:39.397Z,53.83
2022-08-07T04:30:35.447Z,53.63
2022-08-07T04:33:15.486Z,53.32
2022-08-07T04:35:50.451Z,52.12
2022-08-07T04:38:23.546Z,51.22
2022-08-07T04:40:56.754Z,50.49
2022-08-07T04:44:13.189Z,50.15
2022-08-07T04:46:34.333Z,49.63
2022-08-07T04:49:18.320Z,48.70
2022-08-07T04:52:05.194Z,48.82
2022-08-07T04:54:43.145Z,49.28
2022-08-07T04:58:29.177Z,49.13
2022-08-07T05:00:30.689Z,49.31
2022-08-07T05:03:31.183Z,49.38
2022-08-07T05:06:19.272Z,49.38
2022-08-07T05:09:02.160Z,49.43
2022-08-07T05:11:56.881Z,48.88
2022-08-07T05:14:53.261Z,48.55
2022-08-07T05:18:00.505Z,48.27
2022-08-07T05:20:25.581Z,47.65
2022-08-07T05:23:03.381Z,47.29
2022-08-07T05:26:13.242Z,46.29
2022-08-07T05:28:30.844Z,46.11
2022-08-07T05:31:03.702Z,46.46
2022-08-07T05:33:39.251Z,46.98
2022-08-07T05:36:22.390Z,47.40
2022-08-07T05:38:59.695Z,47.28
2022-08-07T05:42:00.271Z,46.92
2022-08-07T05:44:41.546Z,46.50
2022-08-07T05:47:20.870Z,46.47
2022-08-07T05:50:10.607Z,46.51
2022-08-07T05:52:43.487Z,46.74
2022-08-07T05:55:16.344Z,46.93
2022-08-07T05:57:49.667Z,46.85
2022-08-07T06:00:23.227Z,46.80
2022-08-07T06:02:57.683Z,47.03
2022-08-07T06:05:34.999Z,47.15
2022-08-07T06:08:30.340Z,47.37
2022-08-07T06:11:03.930Z,47.18
2022-08-07T06:14:11.988Z,47.42
2022-08-07T06:16:34.628Z,47.45
2022-08-07T06:19:06.958Z,47.17
2022-08-07T06:22:15.555Z,46.15
2022-08-07T06:24:45.642Z,46.09
2022-08-07T06:27:44.453Z,45.59
2022-08-07T06:30:32.453Z,45.39
2022-08-07T06:33:09.905Z,43.58
2022-08-07T06:36:12.839Z,44.36
2022-08-07T06:38:39.617Z,44.79
2022-08-07T06:42:00.828Z,45.65
2022-08-07T06:44:31.198Z,45.64
2022-08-07T06:47:12.684Z,45.49
2022-08-07T06:49:52.099Z,45.12
2022-08-07T06:52:35.812Z,43.82
2022-08-07T06:55:33.270Z,43.77
2022-08-07T06:58:06.006Z,43.62
2022-08-07T07:00:44.611Z,43.42
2022-08-07T07:03:17.295Z,43.57
2022-08-07T07:06:04.355Z,43.37
2022-08-07T07:08:39.737Z,41.02
2022-08-07T07:12:07.622Z,40.54
2022-08-07T07:14:10.612Z,40.31
2022-08-07T07:16:51.134Z,40.42
2022-08-07T07:19:55.526Z,40.83
2022-08-07T07:22:34.464Z,41.22
2022-08-07T07:25:14.232Z,40.94
2022-08-07T07:28:42.229Z,41.45
2022-08-07T07:31:09.517Z,41.61
2022-08-07T07:33:43.613Z,41.66
2022-08-07T07:36:21.857Z,42.32
2022-08-07T07:39:06.757Z,42.68
2022-08-07T07:42:01.903Z,41.76
2022-08-07T07:44:35.362Z,41.50
2022-08-07T07:47:16.055Z,42.14
2022-08-07T07:50:33.278Z,42.09
2022-08-07T07:52:49.683Z,42.31
2022-08-07T07:55:22.973Z,41.72
2022-08-07T07:57:58.439Z,41.52
2022-08-07T08:00:34.487Z,41.12
2022-08-07T08:03:16.976Z,40.41
2022-08-07T08:06:03.986Z,40.26
2022-08-07T08:08:39.442Z,40.54
2022-08-07T08:11:18.030Z,40.73
2022-08-07T08:14:06.303Z,40.21
2022-08-07T08:16:42.361Z,40.59
2022-08-07T08:20:18.507Z,40.65
2022-08-07T08:22:54.134Z,40.80
2022-08-07T08:25:49.367Z,41.07
2022-08-07T08:28:37.681Z,40.64
2022-08-07T08:31:16.388Z,39.99
2022-08-07T08:33:57.894Z,39.69
2022-08-07T08:36:32.390Z,39.55
2022-08-07T08:39:07.255Z,39.79
2022-08-07T08:41:57.030Z,39.74
2022-08-07T08:44:39.570Z,39.60
2022-08-07T08:47:25.167Z,40.02
2022-08-07T08:50:15.141Z,40.39
2022-08-07T08:52:55.095Z,39.86
2022-08-07T08:55:55.580Z,39.32
2022-08-07T08:58:36.798Z,39.21
2022-08-07T09:01:19.351Z,39.17
2022-08-07T09:04:09.039Z,39.19
2022-08-07T09:06:53.921Z,39.17
2022-08-07T09:09:48.492Z,39.02
2022-08-07T09:12:53.282Z,39.61
2022-08-07T09:16:23.871Z,39.67
2022-08-07T09:18:58.608Z,38.74
2022-08-07T09:22:10.253Z,38.50
2022-08-07T09:24:55.395Z,38.55
2022-08-07T09:28:00.436Z,38.56
2022-08-07T09:30:34.741Z,38.96
2022-08-07T09:33:40.914Z,39.68
2022-08-07T09:36:16.287Z,39.47
2022-08-07T09:38:53.723Z,39.50
2022-08-07T09:41:43.184Z,39.10
2022-08-07T09:44:46.587Z,39.60
2022-08-07T09:47:55.860Z,39.47
2022-08-07T09:50:38.066Z,39.12
2022-08-07T09:53:13.819Z,38.28
2022-08-07T09:56:05.593Z,37.23
2022-08-07T09:59:07.546Z,37.40
2022-08-07T10:02:00.171Z,37.86
2022-08-07T10:05:12.363Z,38.74
2022-08-07T10:08:01.098Z,39.23
2022-08-07T10:13:55.075Z,38.74
2022-08-07T10:16:45.151Z,38.52
2022-08-07T10:19:38.661Z,38.09
2022-08-07T10:22:33.779Z,37.45
2022-08-07T10:25:42.588Z,37.35
2022-08-07T10:28:39.464Z,37.19
2022-08-07T10:31:40.036Z,37.61
2022-08-07T10:34:31.906Z,36.96
2022-08-07T10:37:26.201Z,37.37
2022-08-07T10:40:21.049Z,37.75
2022-08-07T10:43:03.578Z,38.16
2022-08-07T10:45:45.101Z,38.63
2022-08-07T10:48:44.592Z,38.41
2022-08-07T10:51:57.158Z,37.85
2022-08-07T10:54:21.129Z,37.75
2022-08-07T10:57:10.022Z,38.11
2022-08-07T11:00:00.607Z,37.52
2022-08-07T11:02:40.159Z,37.11
2022-08-07T11:05:35.786Z,37.67
2022-08-07T11:08:29.208Z,37.90
2022-08-07T11:11:09.066Z,37.58
2022-08-07T11:14:57.561Z,37.64
2022-08-07T11:16:51.361Z,37.44
2022-08-07T11:19:32.594Z,37.03
2022-08-07T11:22:27.189Z,37.25
2022-08-07T11:25:12.795Z,37.75
2022-08-07T11:28:02.806Z,37.92
2022-08-07T11:30:44.286Z,38.51
2022-08-07T11:33:59.176Z,39.03
2022-08-07T11:36:30.976Z,38.54
2022-08-07T11:39:19.786Z,38.29
2022-08-07T11:42:03.308Z,37.81
2022-08-07T11:44:52.405Z,38.12
2022-08-07T11:48:03.392Z,38.03
2022-08-07T11:51:41.955Z,37.97
2022-08-07T11:54:35.110Z,37.24
2022-08-07T11:57:17.292Z,36.52
2022-08-07T12:00:10.112Z,37.10
2022-08-07T12:03:46.944Z,37.09
2022-08-07T12:06:56.306Z,37.42
2022-08-07T12:09:38.186Z,36.95
2022-08-07T12:12:13.029Z,36.81
2022-08-07T12:14:56.463Z,36.99
2022-08-07T12:17:59.709Z,37.48
2022-08-07T12:20:37.683Z,37.08
2022-08-07T12:24:06.983Z,37.51
2022-08-07T12:26:47.011Z,37.96
2022-08-07T12:29:37.786Z,37.97
2022-08-07T12:32:19.203Z,36.40
2022-08-07T12:34:55.666Z,36.05
2022-08-07T12:38:09.853Z,36.23
2022-08-07T12:40:47.106Z,35.89
2022-08-07T12:44:02.791Z,36.16
2022-08-07T12:46:26.618Z,36.28
2022-08-07T12:49:25.348Z,36.36
2022-08-07T12:52:17.208Z,36.35
2022-08-07T12:55:03.829Z,36.57
2022-08-07T12:58:00.737Z,36.58
2022-08-07T13:00:49.561Z,36.16
2022-08-07T13:03:59.303Z,35.64
2022-08-07T13:07:00.461Z,35.70
2022-08-07T13:10:28.454Z,35.67
2022-08-07T13:13:47.557Z,35.53
2022-08-07T13:16:17.757Z,34.47
2022-08-07T13:18:56.695Z,34.70
2022-08-07T13:21:37.361Z,35.42
2022-08-07T13:24:29.343Z,35.74
2022-08-07T13:27:13.172Z,36.50
2022-08-07T13:29:51.431Z,36.23
2022-08-07T13:32:32.637Z,36.08
2022-08-07T13:35:21.058Z,36.04
2022-08-07T13:38:01.061Z,36.18
2022-08-07T13:40:42.246Z,35.99
2022-08-07T13:43:16.857Z,35.66
2022-08-07T13:46:12.490Z,35.61
2022-08-07T13:48:58.516Z,36.20
2022-08-07T13:52:19.064Z,36.18
2022-08-07T13:54:33.537Z,36.02
2022-08-07T13:57:14.692Z,35.81
2022-08-07T14:00:00.056Z,34.91
2022-08-07T14:02:49.319Z,35.61
2022-08-07T14:05:37.600Z,35.90
2022-08-07T14:08:11.155Z,36.22
2022-08-07T14:10:45.839Z,36.19
2022-08-07T14:13:34.721Z,36.18
2022-08-07T14:16:16.069Z,35.74
2022-08-07T14:18:57.022Z,35.96
2022-08-07T14:22:00.921Z,36.21
2022-08-07T14:24:33.493Z,36.19
2022-08-07T14:28:09.150Z,36.41
2022-08-07T14:33:02.033Z,35.72
2022-08-07T14:35:45.349Z,35.17
2022-08-07T14:38:31.426Z,34.81
2022-08-07T14:41:14.659Z,35.14
2022-08-07T14:43:57.179Z,35.48
2022-08-07T14:46:31.955Z,35.49
2022-08-07T14:49:55.603Z,34.85
2022-08-07T14:54:54.031Z,34.03
2022-08-07T15:00:29.929Z,34.60
2022-08-07T15:03:16.718Z,35.00
2022-08-07T15:08:53.124Z,35.67
2022-08-07T15:11:50.937Z,35.44
2022-08-07T15:14:30.541Z,35.75
2022-08-07T15:17:12.972Z,35.93
2022-08-07T15:20:33.107Z,35.88
2022-08-07T15:25:53.073Z,35.45
2022-08-07T15:28:34.638Z,35.80
2022-08-07T15:32:00.945Z,35.79
2022-08-07T15:34:14.941Z,35.56
2022-08-07T15:37:04.504Z,35.49
2022-08-07T15:42:52.873Z,35.43
2022-08-07T15:45:55.870Z,34.98
2022-08-07T15:48:32.022Z,35.37
2022-08-07T15:54:04.641Z,34.88
2022-08-07T15:56:48.230Z,35.58
2022-08-07T15:59:39.736Z,36.07
2022-08-07T16:02:16.349Z,36.48
2022-08-07T16:04:56.686Z,35.70
2022-08-07T16:08:33.646Z,35.97
2022-08-07T16:10:27.768Z,36.77
2022-08-07T16:13:17.879Z,36.28
2022-08-07T16:16:42.933Z,35.83
2022-08-07T16:19:18.933Z,36.12
2022-08-07T16:22:54.516Z,36.19
2022-08-07T16:25:52.622Z,36.13
2022-08-07T16:30:07.340Z,36.41
2022-08-07T16:31:50.072Z,36.75
2022-08-07T16:34:34.493Z,36.69
2022-08-07T16:38:05.456Z,36.32
2022-08-07T16:41:01.615Z,36.18
2022-08-07T16:44:03.995Z,36.23
2022-08-07T16:47:30.776Z,36.54
2022-08-07T16:50:35.907Z,36.40
2022-08-07T16:53:56.963Z,36.76
2022-08-07T16:56:27.705Z,36.89
2022-08-07T16:59:14.580Z,37.21
2022-08-07T17:02:03.065Z,37.75
2022-08-07T17:04:57.750Z,38.03
2022-08-07T17:07:55.613Z,38.04
2022-08-07T17:10:38.658Z,37.93
2022-08-07T17:14:18.043Z,37.93
2022-08-07T17:16:44.649Z,38.06
2022-08-07T17:20:01.665Z,38.19
2022-08-07T17:22:38.853Z,38.56
2022-08-07T17:25:20.535Z,38.69
2022-08-07T17:28:19.806Z,39.19
2022-08-07T17:31:16.689Z,39.24
2022-08-07T17:34:17.968Z,39.34
2022-08-07T17:37:09.032Z,39.34
2022-08-07T17:40:03.068Z,39.60
2022-08-07T17:42:59.130Z,39.84
2022-08-07T17:45:37.783Z,39.99
2022-08-07T17:48:30.434Z,40.16
2022-08-07T17:51:24.255Z,40.01
2022-08-07T17:54:29.794Z,39.89
2022-08-07T17:57:23.250Z,40.05
2022-08-07T17:59:58.551Z,40.22
2022-08-07T18:02:41.381Z,40.24
2022-08-07T18:06:02.126Z,40.36
2022-08-07T18:08:32.533Z,40.63
2022-08-07T18:12:08.288Z,40.80
2022-08-07T18:14:19.003Z,41.00
2022-08-07T18:17:01.482Z,41.11
2022-08-07T18:21:11.033Z,41.27
2022-08-07T18:22:44.058Z,41.46
2022-08-07T18:25:39.179Z,41.77
2022-08-07T18:28:35.864Z,42.16
2022-08-07T18:31:20.376Z,42.54
2022-08-07T18:34:36.991Z,42.56
2022-08-07T18:38:55.758Z,42.90
2022-08-07T18:40:42.233Z,43.19
2022-08-07T18:43:42.822Z,43.50
2022-08-07T18:46:30.321Z,43.82
2022-08-07T18:50:32.403Z,44.00
2022-08-07T18:52:40.865Z,44.44
2022-08-07T18:55:40.746Z,44.79
2022-08-07T18:58:35.395Z,45.63
2022-08-07T19:02:19.351Z,46.19
2022-08-07T19:04:35.751Z,46.57
2022-08-07T19:07:18.747Z,47.06
2022-08-07T19:10:18.631Z,47.54
2022-08-07T19:13:11.683Z,47.64
2022-08-07T19:16:05.702Z,47.79
2022-08-07T19:18:54.116Z,47.81
2022-08-07T19:21:45.057Z,48.01
2022-08-07T19:24:32.182Z,48.38
2022-08-07T19:28:29.620Z,48.82
2022-08-07T19:31:05.415Z,49.29
2022-08-07T19:33:00.064Z,49.84
2022-08-07T19:35:35.131Z,50.23
2022-08-07T19:38:16.757Z,50.48
2022-08-07T19:40:52.516Z,50.53
2022-08-07T19:43:44.104Z,50.80
2022-08-07T19:46:26.351Z,50.73
2022-08-07T19:49:06.487Z,50.82
2022-08-07T19:51:51.311Z,51.20
2022-08-07T19:54:32.942Z,51.48
2022-08-07T19:57:59.983Z,51.77
2022-08-07T20:00:28.583Z,52.35
2022-08-07T20:03:34.029Z,52.86
2022-08-07T20:06:04.799Z,53.22
2022-08-07T20:08:40.959Z,53.19
2022-08-07T20:12:00.996Z,53.15
2022-08-07T20:14:31.785Z,53.21
2022-08-07T20:17:06.132Z,53.41
2022-08-07T20:19:48.061Z,53.67
2022-08-07T20:22:36.512Z,53.71
2022-08-07T20:25:12.814Z,54.51
2022-08-07T20:27:58.458Z,55.03
2022-08-07T20:30:36.664Z,55.18
2022-08-07T20:33:36.873Z,55.14
2022-08-07T20:36:06.684Z,55.03
2022-08-07T20:38:59.675Z,54.95
2022-08-07T20:41:38.329Z,54.89
2022-08-07T20:44:13.312Z,55.04
2022-08-07T20:46:48.914Z,55.61
2022-08-07T20:49:58.082Z,55.95
2022-08-07T20:52:51.196Z,56.37
2022-08-07T20:55:26.267Z,56.26
2022-08-07T20:58:03.854Z,56.18
2022-08-07T21:00:47.240Z,56.01
2022-08-07T21:03:25.495Z,55.99
2022-08-07T21:06:04.205Z,55.98
2022-08-07T21:09:04.065Z,56.07
2022-08-07T21:11:51.462Z,56.54
2022-08-07T21:14:32.942Z,56.71
2022-08-07T21:18:03.479Z,56.92
2022-08-07T21:20:05.763Z,56.62
2022-08-07T21:22:45.106Z,56.59
2022-08-07T21:25:38.945Z,56.93
2022-08-07T21:28:16.891Z,56.82
2022-08-07T21:31:04.130Z,56.86
2022-08-07T21:33:46.048Z,57.54
2022-08-07T21:36:31.878Z,57.83
2022-08-07T21:39:46.243Z,57.86
2022-08-07T21:42:41.859Z,57.63
2022-08-07T21:46:03.572Z,57.70
2022-08-07T21:48:29.224Z,57.83
2022-08-07T21:51:19.903Z,57.82
2022-08-07T21:54:01.871Z,58.07
2022-08-07T21:56:47.917Z,58.33
2022-08-07T22:00:04.855Z,58.66
2022-08-07T22:02:48.200Z,58.59
2022-08-07T22:05:44.619Z,58.63
2022-08-07T22:08:18.605Z,58.60
2022-08-07T22:10:53.875Z,58.91
2022-08-07T22:13:50.039Z,59.00
2022-08-07T22:16:40.038Z,59.15
2022-08-07T22:19:20.221Z,59.21
2022-08-07T22:22:18.121Z,59.38
2022-08-07T22:25:11.274Z,59.38
2022-08-07T22:28:08.423Z,59.15
2022-08-07T22:31:05.174Z,58.78
2022-08-07T22:33:56.635Z,59.28
2022-08-07T22:36:46.522Z,59.48
2022-08-07T22:39:24.674Z,59.33
2022-08-07T22:42:19.139Z,59.15
2022-08-07T22:44:58.798Z,59.45
2022-08-07T22:47:58.744Z,59.13
2022-08-07T22:50:59.677Z,59.47
2022-08-07T22:54:09.195Z,59.55
2022-08-07T22:56:44.787Z,59.72
2022-08-07T22:59:44.675Z,60.04
2022-08-07T23:02:43.089Z,60.50
2022-08-07T23:06:08.827Z,59.93
2022-08-07T23:09:00.652Z,59.46
2022-08-07T23:12:03.196Z,59.55
2022-08-07T23:15:00.330Z,59.68
2022-08-07T23:17:46.336Z,59.67
2022-08-07T23:20:53.403Z,60.46
2022-08-07T23:24:06.954Z,60.76
2022-08-07T23:26:49.961Z,60.33
2022-08-07T23:30:37.523Z,60.48
2022-08-07T23:34:33.888Z,60.29
2022-08-07T23:36:17.516Z,60.12
2022-08-07T23:39:08.562Z,60.52
2022-08-07T23:42:01.643Z,60.82
2022-08-07T23:44:54.357Z,60.96
2022-08-07T23:47:46.591Z,61.09
2022-08-07T23:50:43.449Z,61.22
2022-08-07T23:53:51.477Z,60.88
2022-08-07T23:56:28.171Z,60.86
